Time;durP1;ratioP1;P1;durP2;ratioP2;P2;SDS_P1;SDS_P2;PMS_P1;PMS_P2;Temp;Humidity;BMP_temperature;BMP_pressure;BME280_temperature;BME280_humidity;BME280_pressure;Samples;Min_cycle;Max_cycle;Signal;HPM_P1;HPM_P2
2022/03/09 00:01:17;;;;;;;31.27;25.93;;;;;;;-1.90;66.24;94858.16;5042278;28;20262;-65
2022/03/09 00:03:42;;;;;;;27.93;23.43;;;;;;;-1.82;66.16;94858.59;5046761;28;20231;-64
2022/03/09 00:06:08;;;;;;;27.70;23.80;;;;;;;-1.83;65.84;94854.34;5049161;28;20228;-66
2022/03/09 00:08:33;;;;;;;30.37;24.83;;;;;;;-1.98;66.40;94850.84;5046449;28;20286;-66
2022/03/09 00:10:59;;;;;;;29.73;25.00;;;;;;;-1.93;66.08;94854.00;5041318;28;20290;-66
2022/03/09 00:13:24;;;;;;;28.93;24.00;;;;;;;-2.08;66.60;94870.28;5047937;28;20307;-66
2022/03/09 00:15:50;;;;;;;29.53;24.63;;;;;;;-2.04;66.39;94864.03;5046124;28;20221;-65
2022/03/09 00:18:16;;;;;;;31.53;23.80;;;;;;;-2.04;66.61;94858.88;5048836;28;20216;-66
2022/03/09 00:20:41;;;;;;;31.00;24.97;;;;;;;-2.00;66.43;94857.84;5047402;28;20227;-66
2022/03/09 00:23:07;;;;;;;30.33;24.47;;;;;;;-1.97;66.77;94857.66;5043449;28;20341;-66
2022/03/09 00:25:32;;;;;;;30.37;25.17;;;;;;;-1.80;66.00;94859.34;5060234;28;20245;-66
2022/03/09 00:27:57;;;;;;;31.10;25.37;;;;;;;-1.97;65.97;94856.84;5044349;28;20346;-66
2022/03/09 00:30:24;;;;;;;28.43;24.13;;;;;;;-1.98;66.47;94858.56;5062462;28;20251;-66
2022/03/09 00:32:49;;;;;;;30.27;26.23;;;;;;;-2.06;66.40;94842.66;5046932;28;20615;-66
2022/03/09 00:35:15;;;;;;;31.73;25.07;;;;;;;-2.02;66.73;94855.31;5050216;28;20231;-66
2022/03/09 00:37:41;;;;;;;28.20;23.23;;;;;;;-2.08;66.73;94841.94;5042063;28;20235;-66
2022/03/09 00:40:07;;;;;;;30.37;25.20;;;;;;;-2.08;66.36;94847.09;5046760;28;20203;-66
2022/03/09 00:42:37;;;;;;;29.13;24.10;;;;;;;-2.06;66.18;94858.13;5048217;28;20722;-66
2022/03/09 00:45:04;;;;;;;30.77;25.27;;;;;;;-2.00;66.72;94852.69;5041385;28;20232;-66
2022/03/09 00:47:30;;;;;;;30.47;25.07;;;;;;;-1.97;66.43;94842.22;5048254;28;20251;-66
2022/03/09 00:49:56;;;;;;;29.70;24.70;;;;;;;-1.94;65.99;94849.78;5049062;28;20307;-66
2022/03/09 00:52:21;;;;;;;30.47;25.03;;;;;;;-1.94;65.20;94842.03;5049958;28;20239;-66
2022/03/09 00:54:47;;;;;;;29.97;25.03;;;;;;;-1.86;65.60;94839.88;5043667;28;20225;-66
2022/03/09 00:57:13;;;;;;;27.73;23.77;;;;;;;-1.93;65.11;94841.13;5043512;28;20239;-65
2022/03/09 00:59:39;;;;;;;27.83;23.90;;;;;;;-1.95;65.34;94837.81;5046929;28;20216;-66
2022/03/09 01:02:05;;;;;;;31.70;26.13;;;;;;;-1.92;65.42;94834.25;5049004;28;20216;-65
2022/03/09 01:04:30;;;;;;;31.93;25.13;;;;;;;-1.99;66.01;94833.72;5048566;28;20212;-66
2022/03/09 01:06:56;;;;;;;29.77;24.03;;;;;;;-1.96;64.77;94833.56;5062110;28;20231;-66
2022/03/09 01:09:21;;;;;;;30.23;24.80;;;;;;;-1.89;64.50;94824.59;5028808;28;20225;-66
2022/03/09 01:11:46;;;;;;;29.63;24.27;;;;;;;-1.85;64.53;94828.66;5025356;28;20231;-66
2022/03/09 01:14:12;;;;;;;30.63;24.13;;;;;;;-1.87;64.03;94827.94;5023247;28;20217;-67
2022/03/09 01:16:37;;;;;;;28.53;24.20;;;;;;;-1.88;64.16;94825.41;5023795;28;20212;-67
2022/03/09 01:19:03;;;;;;;31.20;24.07;;;;;;;-1.79;63.98;94820.63;5022880;28;20213;-66
2022/03/09 01:21:29;;;;;;;29.00;23.43;;;;;;;-1.87;64.08;94822.78;5038365;28;20281;-67
2022/03/09 01:23:54;;;;;;;29.97;23.93;;;;;;;-1.72;63.78;94821.09;5041532;28;20221;-67
2022/03/09 01:26:20;;;;;;;31.00;23.20;;;;;;;-1.70;63.53;94818.47;5045618;28;20452;-66
2022/03/09 01:28:45;;;;;;;30.00;24.33;;;;;;;-1.72;62.88;94820.28;5041742;28;20207;-67
2022/03/09 01:31:10;;;;;;;26.07;22.27;;;;;;;-1.66;62.28;94813.03;5042957;28;20223;-67
2022/03/09 01:33:36;;;;;;;29.13;24.20;;;;;;;-1.71;62.70;94821.94;5042962;28;20229;-67
2022/03/09 01:36:01;;;;;;;28.23;22.83;;;;;;;-1.80;62.84;94818.09;5042709;28;20228;-67
2022/03/09 01:38:27;;;;;;;33.97;23.67;;;;;;;-1.79;62.30;94818.03;5043269;28;20299;-66
2022/03/09 01:40:52;;;;;;;29.37;24.00;;;;;;;-1.80;62.59;94815.53;5048721;28;20212;-67
2022/03/09 01:43:18;;;;;;;28.83;24.00;;;;;;;-1.87;63.37;94817.63;5051518;28;20275;-66
2022/03/09 01:45:44;;;;;;;28.73;23.97;;;;;;;-1.83;63.54;94823.44;5046026;28;20239;-65
2022/03/09 01:48:09;;;;;;;27.90;23.80;;;;;;;-1.70;62.83;94828.75;5044715;28;20225;-64
2022/03/09 01:50:34;;;;;;;30.27;23.60;;;;;;;-1.80;62.23;94818.94;5043733;28;20244;-65
2022/03/09 01:53:00;;;;;;;26.87;23.00;;;;;;;-1.80;62.55;94818.94;5043608;28;20236;-65
2022/03/09 01:55:25;;;;;;;28.60;22.77;;;;;;;-1.84;62.56;94829.50;5042998;28;20295;-65
2022/03/09 01:57:51;;;;;;;26.93;22.00;;;;;;;-1.81;61.96;94819.03;5046197;28;20225;-65
2022/03/09 02:00:17;;;;;;;27.33;23.03;;;;;;;-1.87;61.74;94822.78;5047681;28;20232;-64
2022/03/09 02:02:43;;;;;;;27.23;22.70;;;;;;;-1.85;61.58;94831.22;5044552;28;20244;-65
2022/03/09 02:05:09;;;;;;;28.60;23.47;;;;;;;-1.88;60.53;94820.25;5040177;28;20303;-65
2022/03/09 02:10:22;;;;;;;29.13;23.37;;;;;;;-1.85;60.58;94818.34;5065200;28;20336;-65
2022/03/09 02:12:48;;;;;;;27.53;22.30;;;;;;;-1.96;60.69;94820.66;5043443;28;20231;-67
2022/03/09 02:15:13;;;;;;;31.20;23.83;;;;;;;-2.04;61.84;94818.50;5046145;28;20217;-67
2022/03/09 02:17:39;;;;;;;27.77;23.33;;;;;;;-2.07;62.11;94812.69;5042509;28;20224;-67
2022/03/09 02:20:05;;;;;;;26.20;21.60;;;;;;;-1.90;61.35;94817.75;5039987;28;20258;-66
2022/03/09 02:22:38;;;;;;;25.63;21.10;;;;;;;-1.90;61.32;94812.59;5042228;28;20219;-65
2022/03/09 02:25:13;;;;;;;27.77;22.40;;;;;;;-1.90;61.32;94816.94;5046347;28;20339;-68
2022/03/09 02:27:39;;;;;;;27.27;22.90;;;;;;;-1.95;60.99;94814.63;5045109;28;20226;-66
2022/03/09 02:30:06;;;;;;;26.50;22.13;;;;;;;-1.90;61.22;94822.09;5047714;28;20227;-65
2022/03/09 02:32:32;;;;;;;30.37;22.67;;;;;;;-1.84;60.32;94816.63;5045464;28;20315;-64
2022/03/09 02:34:57;;;;;;;28.60;22.77;;;;;;;-1.89;60.58;94818.63;5047726;28;20212;-65
2022/03/09 02:37:23;;;;;;;25.70;21.43;;;;;;;-1.91;60.39;94821.25;5060881;28;20209;-65
2022/03/09 02:39:49;;;;;;;29.13;23.03;;;;;;;-1.89;60.85;94810.88;5045338;28;20228;-67
2022/03/09 02:42:15;;;;;;;26.00;21.50;;;;;;;-1.94;61.14;94816.28;5045497;28;20279;-65
2022/03/09 02:44:41;;;;;;;26.80;21.43;;;;;;;-1.96;60.83;94820.66;5045674;28;20232;-65
2022/03/09 02:47:07;;;;;;;27.17;22.23;;;;;;;-2.06;61.25;94806.59;5047190;28;20231;-65
2022/03/09 02:49:33;;;;;;;27.07;22.60;;;;;;;-2.04;60.82;94815.09;5052321;28;20200;-64
2022/03/09 02:51:59;;;;;;;24.37;21.37;;;;;;;-1.94;60.59;94807.72;5050359;28;20248;-65
2022/03/09 02:54:24;;;;;;;27.80;22.13;;;;;;;-1.82;59.93;94819.94;5046832;28;20283;-65
2022/03/09 02:56:49;;;;;;;28.13;23.13;;;;;;;-1.88;60.50;94812.53;5050444;28;20225;-65
2022/03/09 02:59:15;;;;;;;27.33;23.10;;;;;;;-2.03;60.37;94811.63;5046074;28;20228;-66
2022/03/09 03:01:41;;;;;;;26.23;21.77;;;;;;;-2.08;60.63;94811.03;5043161;28;20231;-65
2022/03/09 03:04:06;;;;;;;28.33;22.53;;;;;;;-2.06;60.07;94816.91;5044687;28;20217;-65
2022/03/09 03:06:32;;;;;;;24.63;21.67;;;;;;;-1.98;59.93;94817.34;5049756;28;20236;-65
2022/03/09 03:08:57;;;;;;;25.77;22.63;;;;;;;-2.03;60.28;94815.03;5048914;28;20327;-66
2022/03/09 03:11:23;;;;;;;27.67;23.03;;;;;;;-2.14;59.80;94806.19;5050828;28;20228;-65
2022/03/09 03:13:49;;;;;;;29.67;23.13;;;;;;;-2.14;60.40;94819.06;5061527;28;20240;-65
2022/03/09 03:16:15;;;;;;;27.57;22.57;;;;;;;-2.08;60.06;94816.19;5063720;28;20541;-65
2022/03/09 03:18:41;;;;;;;28.73;22.87;;;;;;;-2.11;60.19;94824.03;5046522;28;20231;-65
2022/03/09 03:21:07;;;;;;;26.70;21.53;;;;;;;-2.11;60.77;94813.75;5045996;28;20323;-66
2022/03/09 03:23:33;;;;;;;27.00;22.43;;;;;;;-1.95;59.87;94831.81;5047689;28;20216;-65
2022/03/09 03:26:00;;;;;;;26.63;22.20;;;;;;;-2.03;59.94;94830.47;5049766;28;20228;-65
2022/03/09 03:28:25;;;;;;;28.33;23.47;;;;;;;-2.05;60.53;94822.00;5051380;28;20225;-65
2022/03/09 03:30:51;;;;;;;27.13;22.73;;;;;;;-2.05;60.27;94816.00;5045357;28;20219;-65
2022/03/09 03:33:19;;;;;;;27.50;22.87;;;;;;;-2.10;61.13;94829.13;5045008;28;20232;-65
2022/03/09 03:35:45;;;;;;;27.17;23.00;;;;;;;-2.15;61.09;94835.44;5058978;28;20228;-65
2022/03/09 03:38:11;;;;;;;29.03;24.50;;;;;;;-2.15;60.97;94827.72;5044976;28;20225;-65
2022/03/09 03:40:36;;;;;;;28.43;23.57;;;;;;;-2.16;61.24;94826.88;5046539;28;20201;-65
2022/03/09 03:43:03;;;;;;;27.33;23.17;;;;;;;-2.20;61.00;94822.78;5046579;28;20267;-64
2022/03/09 03:45:28;;;;;;;26.97;22.97;;;;;;;-2.13;61.30;94826.72;5049069;28;20296;-65
2022/03/09 03:47:54;;;;;;;29.00;23.10;;;;;;;-2.24;62.11;94831.59;5061021;28;20315;-64
2022/03/09 03:50:19;;;;;;;28.13;24.40;;;;;;;-2.10;60.85;94825.72;5042892;28;20247;-65
2022/03/09 03:52:45;;;;;;;27.90;22.67;;;;;;;-2.10;60.33;94820.56;5044418;28;20508;-65
2022/03/09 03:55:11;;;;;;;26.97;22.80;;;;;;;-2.13;60.51;94826.72;5045013;28;20248;-65
2022/03/09 03:57:36;;;;;;;26.83;22.20;;;;;;;-2.16;61.21;94826.88;5039259;28;20236;-66
2022/03/09 04:00:07;;;;;;;28.03;22.07;;;;;;;-2.25;61.09;94828.16;5048459;28;20302;-66
2022/03/09 04:02:33;;;;;;;28.50;23.07;;;;;;;-2.21;60.92;94826.28;5050527;28;20224;-66
2022/03/09 04:04:58;;;;;;;25.97;21.97;;;;;;;-2.17;60.42;94826.94;5049884;28;20232;-66
2022/03/09 04:07:24;;;;;;;27.73;22.93;;;;;;;-2.27;60.03;94829.19;5045948;28;20286;-66
2022/03/09 04:09:49;;;;;;;28.37;22.80;;;;;;;-2.31;60.68;94831.06;5045173;28;20221;-66
2022/03/09 04:12:15;;;;;;;28.73;22.63;;;;;;;-2.28;60.16;94833.47;5043728;28;20233;-66
2022/03/09 04:14:41;;;;;;;28.60;23.23;;;;;;;-2.32;59.95;94829.41;5039915;28;20227;-66
2022/03/09 04:17:06;;;;;;;27.40;22.57;;;;;;;-2.39;59.97;94825.47;5047546;28;20236;-66
2022/03/09 04:19:32;;;;;;;28.57;22.43;;;;;;;-2.45;60.77;94823.22;5045003;28;20353;-67
2022/03/09 04:21:58;;;;;;;28.07;23.13;;;;;;;-2.40;60.88;94826.41;5045527;28;20239;-66
2022/03/09 04:24:23;;;;;;;27.93;23.60;;;;;;;-2.39;60.49;94830.63;5046943;28;20222;-66
2022/03/09 04:26:49;;;;;;;27.47;22.20;;;;;;;-2.46;60.82;94830.13;5045301;28;20239;-66
2022/03/09 04:29:14;;;;;;;27.83;22.57;;;;;;;-2.36;61.15;94835.63;5043511;28;20423;-64
2022/03/09 04:31:40;;;;;;;28.77;23.50;;;;;;;-2.43;60.86;94831.72;5044879;28;20221;-66
2022/03/09 04:34:05;;;;;;;30.57;24.03;;;;;;;-2.41;61.17;94831.63;5036600;28;20283;-65
2022/03/09 04:36:31;;;;;;;28.00;21.90;;;;;;;-2.35;61.13;94837.31;5048772;28;20247;-65
2022/03/09 04:38:57;;;;;;;26.43;22.07;;;;;;;-2.27;60.95;94829.19;5064281;28;20232;-65
2022/03/09 04:41:22;;;;;;;26.80;22.30;;;;;;;-2.42;60.92;94828.22;5046917;28;20278;-66
2022/03/09 04:43:48;;;;;;;26.20;22.23;;;;;;;-2.39;60.87;94828.06;5042745;28;20212;-65
2022/03/09 04:46:14;;;;;;;29.57;23.83;;;;;;;-2.34;60.66;94831.22;5044803;28;20232;-65
2022/03/09 04:48:39;;;;;;;26.90;21.97;;;;;;;-2.36;61.10;94835.63;5043480;28;20263;-65
2022/03/09 04:51:05;;;;;;;29.93;23.13;;;;;;;-2.38;60.65;94829.72;5046755;28;20714;-64
2022/03/09 04:53:31;;;;;;;26.53;22.67;;;;;;;-2.41;60.33;94837.59;5049219;28;20247;-65
2022/03/09 04:55:57;;;;;;;27.53;22.23;;;;;;;-2.37;60.41;94833.16;5045320;28;20212;-65
2022/03/09 04:58:23;;;;;;;28.63;23.10;;;;;;;-2.42;61.03;94830.78;5040527;28;20200;-65
2022/03/09 05:00:48;;;;;;;28.33;23.37;;;;;;;-2.36;60.40;94833.03;5043683;28;20233;-65
2022/03/09 05:03:13;;;;;;;25.80;21.90;;;;;;;-2.34;60.94;94836.38;5041197;28;20332;-65
2022/03/09 05:05:39;;;;;;;28.47;21.83;;;;;;;-2.31;60.70;94840.53;5042426;28;20213;-65
2022/03/09 05:08:04;;;;;;;30.70;23.50;;;;;;;-2.20;60.58;94845.13;5033452;28;20236;-65
2022/03/09 05:10:30;;;;;;;28.63;23.07;;;;;;;-2.13;60.62;94831.88;5025590;28;20245;-65
2022/03/09 05:12:55;;;;;;;31.83;24.30;;;;;;;-2.30;60.53;94844.78;5023907;28;20239;-65
2022/03/09 05:15:21;;;;;;;30.17;24.00;;;;;;;-2.29;60.04;94839.56;5023954;28;20293;-65
2022/03/09 05:17:47;;;;;;;27.53;22.50;;;;;;;-2.25;60.61;94848.78;5022515;28;20228;-65
2022/03/09 05:20:14;;;;;;;27.47;22.73;;;;;;;-2.24;60.60;94860.75;5024119;28;20217;-65
2022/03/09 05:22:39;;;;;;;26.67;22.27;;;;;;;-2.30;60.42;94855.94;5021551;28;20201;-67
2022/03/09 05:25:06;;;;;;;27.93;23.07;;;;;;;-2.20;60.29;94866.56;5022646;28;20212;-65
2022/03/09 05:27:32;;;;;;;27.50;23.00;;;;;;;-2.31;60.70;94861.16;5023023;28;20217;-66
2022/03/09 05:29:58;;;;;;;29.50;23.93;;;;;;;-2.16;60.36;94868.09;5038598;28;20236;-65
2022/03/09 05:32:23;;;;;;;29.60;23.87;;;;;;;-2.14;60.01;94868.00;5019503;28;20530;-66
2022/03/09 05:34:50;;;;;;;28.93;23.33;;;;;;;-2.16;60.10;94860.38;5040044;28;20209;-64
2022/03/09 05:37:19;;;;;;;31.37;24.87;;;;;;;-2.16;60.75;94867.28;5027720;28;20216;-65
2022/03/09 05:39:45;;;;;;;33.57;24.53;;;;;;;-2.17;60.56;94860.44;5022469;28;20236;-65
2022/03/09 05:42:10;;;;;;;29.40;24.40;;;;;;;-2.08;60.01;94872.84;5023384;28;20255;-64
2022/03/09 05:44:36;;;;;;;32.43;23.97;;;;;;;-2.04;59.64;94866.63;5022620;28;20563;-65
2022/03/09 05:47:02;;;;;;;27.37;23.20;;;;;;;-2.06;58.95;94874.44;5027463;28;20229;-65
2022/03/09 05:49:27;;;;;;;27.50;22.60;;;;;;;-2.18;59.53;94875.06;5026298;28;20232;-65
2022/03/09 05:51:53;;;;;;;29.77;23.47;;;;;;;-2.10;59.70;94878.06;5039673;28;20255;-65
2022/03/09 05:54:20;;;;;;;27.33;23.00;;;;;;;-2.12;59.65;94879.06;5025193;28;20221;-65
2022/03/09 05:56:46;;;;;;;27.77;23.73;;;;;;;-2.12;59.86;94877.31;5023149;28;20249;-65
2022/03/09 05:59:11;;;;;;;29.60;23.10;;;;;;;-2.13;60.01;94878.25;5020979;28;20247;-64
2022/03/09 06:01:37;;;;;;;28.87;23.80;;;;;;;-2.12;60.32;94879.88;5023382;28;20209;-65
2022/03/09 06:04:03;;;;;;;27.87;24.77;;;;;;;-2.13;60.13;94880.00;5020619;28;20275;-65
2022/03/09 06:06:29;;;;;;;30.80;23.40;;;;;;;-2.15;59.96;94882.63;5019355;28;20235;-65
2022/03/09 06:08:54;;;;;;;29.07;24.50;;;;;;;-2.11;60.81;94878.13;5038221;28;20240;-65
2022/03/09 06:11:20;;;;;;;30.33;24.27;;;;;;;-2.04;60.59;94887.22;5035976;28;20320;-65
2022/03/09 06:13:46;;;;;;;30.77;26.20;;;;;;;-2.18;60.66;94887.13;5039934;28;20216;-65
2022/03/09 06:16:11;;;;;;;31.13;25.00;;;;;;;-2.12;60.58;94885.03;5042028;28;20204;-66
2022/03/09 06:18:37;;;;;;;30.67;25.53;;;;;;;-2.04;60.79;94892.38;5058433;28;20299;-67
2022/03/09 06:21:03;;;;;;;32.07;25.90;;;;;;;-2.01;60.50;94890.47;5046569;28;20361;-65
2022/03/09 06:23:28;;;;;;;28.17;24.63;;;;;;;-1.96;59.85;94890.25;5047319;28;20232;-66
2022/03/09 06:25:54;;;;;;;28.17;24.17;;;;;;;-1.92;59.43;94891.75;5040843;28;20374;-65
2022/03/09 06:28:19;;;;;;;28.67;22.93;;;;;;;-1.94;59.34;94903.88;5042229;28;20204;-65
2022/03/09 06:30:45;;;;;;;28.80;23.47;;;;;;;-1.91;59.91;94893.41;5041063;28;20229;-65
2022/03/09 06:33:10;;;;;;;28.53;23.93;;;;;;;-1.86;59.60;94900.91;5041270;28;20224;-65
2022/03/09 06:35:36;;;;;;;27.03;23.40;;;;;;;-1.88;59.32;94898.41;5042429;28;20229;-66
2022/03/09 06:38:02;;;;;;;28.53;23.00;;;;;;;-1.78;59.88;94894.44;5043656;28;20243;-66
2022/03/09 06:40:27;;;;;;;29.63;22.77;;;;;;;-1.78;59.04;94896.19;5043695;28;20208;-65
2022/03/09 06:42:53;;;;;;;26.67;22.23;;;;;;;-1.73;58.94;94903.69;5042091;28;20225;-66
2022/03/09 06:45:18;;;;;;;27.33;22.67;;;;;;;-1.72;58.98;94898.44;5039419;28;20320;-66
2022/03/09 06:47:44;;;;;;;30.27;23.83;;;;;;;-1.53;59.36;94908.59;5046656;28;20221;-66
2022/03/09 06:50:10;;;;;;;25.70;20.87;;;;;;;-1.32;58.16;94906.63;5057271;28;20225;-67
2022/03/09 06:52:37;;;;;;;27.83;22.87;;;;;;;-1.08;57.14;94914.78;5042846;28;20220;-65
2022/03/09 06:55:03;;;;;;;24.90;21.63;;;;;;;-1.16;57.02;94907.44;5062675;28;20220;-66
2022/03/09 06:57:32;;;;;;;25.87;21.57;;;;;;;-1.15;56.56;94913.44;5044901;28;20252;-68
2022/03/09 06:59:59;;;;;;;27.27;23.23;;;;;;;-1.15;57.21;94919.47;5057222;28;20300;-68
2022/03/09 07:02:25;;;;;;;27.17;22.00;;;;;;;-0.96;56.47;94913.28;5041827;28;20282;-65
2022/03/09 07:04:50;;;;;;;25.90;22.33;;;;;;;-0.91;56.12;94908.69;5031208;28;20217;-65
2022/03/09 07:07:16;;;;;;;30.00;24.73;;;;;;;-0.82;55.62;94907.34;5038100;28;20224;-65
2022/03/09 07:09:41;;;;;;;26.70;21.90;;;;;;;-0.67;55.60;94903.88;5040391;28;20224;-63
2022/03/09 07:12:07;;;;;;;27.57;23.73;;;;;;;-0.40;56.17;94908.41;5044875;28;20293;-65
2022/03/09 07:14:33;;;;;;;28.80;22.47;;;;;;;-0.15;54.83;94906.06;5041858;28;20259;-66
2022/03/09 07:16:58;;;;;;;23.97;21.23;;;;;;;-0.03;53.37;94907.09;5040594;28;20418;-64
2022/03/09 07:19:24;;;;;;;24.90;20.60;;;;;;;-0.06;52.99;94899.53;5038252;28;20216;-65
2022/03/09 07:21:49;;;;;;;25.50;21.10;;;;;;;0.08;52.65;94906.44;5043076;28;20224;-65
2022/03/09 07:24:15;;;;;;;27.00;21.37;;;;;;;0.05;52.97;94904.88;5042689;28;20216;-66
2022/03/09 07:26:42;;;;;;;24.30;21.03;;;;;;;-0.04;52.75;94903.69;5059857;28;20225;-65
2022/03/09 07:29:09;;;;;;;24.93;21.10;;;;;;;-0.02;52.49;94912.19;5049652;28;20244;-64
2022/03/09 07:31:35;;;;;;;24.87;21.47;;;;;;;-0.18;53.84;94895.09;5047640;28;20216;-65
2022/03/09 07:34:01;;;;;;;24.70;21.60;;;;;;;-0.23;53.76;94898.75;5048167;28;20286;-65
2022/03/09 07:36:26;;;;;;;26.33;21.50;;;;;;;-0.32;54.34;94895.88;5041900;28;20232;-65
2022/03/09 07:38:52;;;;;;;25.93;21.30;;;;;;;-0.27;53.80;94904.19;5044462;28;20213;-64
2022/03/09 07:41:17;;;;;;;27.30;23.53;;;;;;;-0.14;53.40;94899.13;5043608;28;20228;-66
2022/03/09 07:43:43;;;;;;;24.03;20.10;;;;;;;0.02;53.14;94902.47;5042677;28;20209;-64
2022/03/09 07:46:09;;;;;;;24.43;20.20;;;;;;;0.13;53.08;94889.75;5049143;28;20323;-65
2022/03/09 07:48:35;;;;;;;26.30;21.33;;;;;;;0.29;52.50;94888.81;5049696;28;20228;-64
2022/03/09 07:51:00;;;;;;;23.70;20.07;;;;;;;0.47;51.44;94886.88;5046184;28;20287;-65
2022/03/09 07:53:26;;;;;;;23.97;21.03;;;;;;;0.64;51.32;94884.06;5047124;28;20242;-65
2022/03/09 07:55:51;;;;;;;24.63;20.87;;;;;;;0.66;51.37;94883.06;5043234;28;20204;-63
2022/03/09 07:58:17;;;;;;;23.03;20.50;;;;;;;0.62;50.50;94886.78;5035761;28;20335;-65
2022/03/09 08:00:42;;;;;;;24.27;20.47;;;;;;;0.75;50.59;94884.25;5042984;28;20281;-66
2022/03/09 08:03:08;;;;;;;24.83;20.70;;;;;;;0.76;50.58;94875.56;5041243;28;20216;-65
2022/03/09 08:05:34;;;;;;;24.37;21.33;;;;;;;0.80;50.55;94881.34;5046282;28;20221;-66
2022/03/09 08:07:59;;;;;;;27.67;21.60;;;;;;;1.17;50.19;94887.63;5044107;28;20262;-65
2022/03/09 08:10:26;;;;;;;25.10;22.33;;;;;;;1.18;49.29;94873.78;5045788;28;20208;-64
2022/03/09 08:12:51;;;;;;;25.93;21.23;;;;;;;1.17;49.88;94890.22;5041478;28;20216;-65
2022/03/09 08:15:17;;;;;;;24.33;21.13;;;;;;;1.19;49.60;94880.59;5045338;28;20231;-65
2022/03/09 08:17:42;;;;;;;24.03;21.37;;;;;;;1.11;49.63;94877.66;5043962;28;20227;-66
2022/03/09 08:20:08;;;;;;;24.70;21.17;;;;;;;1.23;50.13;94876.03;5046529;28;20254;-64
2022/03/09 08:22:34;;;;;;;23.10;20.43;;;;;;;1.27;50.17;94877.53;5049492;28;20227;-64
2022/03/09 08:24:59;;;;;;;25.90;21.37;;;;;;;1.30;49.38;94885.91;5059640;28;20248;-64
2022/03/09 08:27:25;;;;;;;26.63;21.70;;;;;;;1.44;50.29;94879.00;5044307;28;20216;-66
2022/03/09 08:29:51;;;;;;;25.33;20.77;;;;;;;1.56;49.45;94882.56;5042280;28;20279;-65
2022/03/09 08:32:20;;;;;;;23.57;19.63;;;;;;;1.52;49.71;94884.53;5043181;28;20237;-65
2022/03/09 08:34:46;;;;;;;22.83;19.33;;;;;;;1.36;49.49;94876.91;5059122;28;20284;-63
2022/03/09 08:37:12;;;;;;;25.50;21.07;;;;;;;1.66;50.25;94876.69;5044796;28;20215;-64
2022/03/09 08:39:38;;;;;;;23.97;20.67;;;;;;;1.61;49.24;94873.56;5045129;28;20258;-64
2022/03/09 08:42:04;;;;;;;24.13;20.97;;;;;;;1.79;49.19;94878.44;5047844;28;20223;-66
2022/03/09 08:44:29;;;;;;;22.80;20.30;;;;;;;1.91;49.73;94867.28;5046906;28;20286;-64
2022/03/09 08:46:55;;;;;;;23.43;20.53;;;;;;;2.03;48.35;94869.03;5058692;28;20212;-65
2022/03/09 08:49:20;;;;;;;21.80;19.37;;;;;;;1.79;48.46;94865.50;5044217;28;20200;-65
2022/03/09 08:51:46;;;;;;;23.03;20.40;;;;;;;1.91;49.54;94864.69;5044562;28;20263;-65
2022/03/09 08:54:11;;;;;;;23.07;19.67;;;;;;;2.30;47.52;94862.88;5038447;28;20228;-65
2022/03/09 08:56:37;;;;;;;22.40;18.73;;;;;;;2.20;46.65;94863.53;5061238;28;20279;-63
2022/03/09 08:59:03;;;;;;;26.03;20.77;;;;;;;2.11;47.07;94860.72;5057623;28;20278;-65
2022/03/09 09:01:28;;;;;;;23.33;20.50;;;;;;;2.38;47.43;94864.03;5042821;28;20198;-65
2022/03/09 09:03:54;;;;;;;27.60;20.80;;;;;;;2.43;47.86;94864.56;5038679;28;20221;-65
2022/03/09 09:06:19;;;;;;;26.20;22.23;;;;;;;2.43;48.77;94853.31;5043596;28;20224;-64
2022/03/09 09:08:45;;;;;;;24.53;21.87;;;;;;;2.14;50.12;94848.41;5043262;28;20221;-64
2022/03/09 09:11:10;;;;;;;25.73;22.43;;;;;;;2.05;49.16;94851.59;5042825;28;20274;-67
2022/03/09 09:13:36;;;;;;;26.83;22.67;;;;;;;1.94;49.94;94846.31;5047393;28;20204;-63
2022/03/09 09:16:02;;;;;;;26.50;23.07;;;;;;;1.79;51.57;94853.34;5031154;28;20297;-64
2022/03/09 09:18:27;;;;;;;24.47;21.63;;;;;;;2.29;49.78;94850.88;5061727;28;20220;-62
2022/03/09 09:20:53;;;;;;;26.50;23.30;;;;;;;2.65;49.67;94847.47;5042277;28;20235;-64
2022/03/09 09:23:20;;;;;;;25.00;21.50;;;;;;;2.74;48.60;94846.81;5040373;28;20237;-63
2022/03/09 09:25:47;;;;;;;24.60;21.93;;;;;;;2.34;48.61;94857.38;5041744;28;20213;-63
2022/03/09 09:28:13;;;;;;;25.97;21.67;;;;;;;2.42;48.86;94859.47;5044926;28;20284;-64
2022/03/09 09:30:39;;;;;;;25.20;21.67;;;;;;;2.52;47.75;94850.09;5048020;28;20220;-63
2022/03/09 09:33:04;;;;;;;26.97;22.23;;;;;;;2.91;49.50;94858.59;5066493;28;20213;-64
2022/03/09 09:35:30;;;;;;;26.57;21.47;;;;;;;2.95;47.31;94852.25;5045451;28;20235;-64
2022/03/09 09:37:55;;;;;;;26.13;21.57;;;;;;;2.97;47.30;94853.00;5043446;28;20204;-65
2022/03/09 09:40:21;;;;;;;25.33;22.63;;;;;;;2.99;47.15;94850.25;5044288;28;20211;-64
2022/03/09 09:42:47;;;;;;;25.70;21.87;;;;;;;2.98;45.98;94856.41;5039038;28;20267;-66
2022/03/09 09:45:12;;;;;;;24.50;21.40;;;;;;;3.18;47.01;94847.16;5043095;28;20220;-66
2022/03/09 09:47:38;;;;;;;22.13;19.83;;;;;;;3.14;46.54;94853.53;5045442;28;20248;-62
2022/03/09 09:50:06;;;;;;;26.07;21.10;;;;;;;3.00;47.04;94849.34;5044010;28;20255;-65
2022/03/09 09:52:33;;;;;;;23.43;20.70;;;;;;;3.46;45.72;94853.78;5037958;28;20255;-64
2022/03/09 09:55:00;;;;;;;23.03;17.63;;;;;;;3.51;43.79;94849.91;5043375;28;20216;-64
2022/03/09 09:57:28;;;;;;;22.30;17.97;;;;;;;3.58;43.91;94846.84;5042382;28;20225;-67
2022/03/09 09:59:54;;;;;;;22.70;19.47;;;;;;;3.66;43.06;94842.75;5040729;28;20221;-64
2022/03/09 10:02:20;;;;;;;22.30;19.90;;;;;;;3.93;43.90;94837.25;5042550;28;20282;-64
2022/03/09 10:04:47;;;;;;;24.10;20.43;;;;;;;4.12;43.38;94839.28;5044772;28;20217;-63
2022/03/09 10:07:13;;;;;;;21.23;18.17;;;;;;;4.44;42.66;94846.41;5054566;28;20232;-63
2022/03/09 10:09:41;;;;;;;21.93;18.70;;;;;;;4.52;42.76;94830.19;5041976;28;20219;-65
2022/03/09 10:12:13;;;;;;;20.77;17.37;;;;;;;4.19;41.34;94840.47;5042844;28;20282;-64
2022/03/09 10:14:47;;;;;;;16.80;14.67;;;;;;;3.87;39.38;94842.91;5039819;28;20298;-63
2022/03/09 10:17:25;;;;;;;16.67;14.97;;;;;;;3.89;40.57;94840.19;5040809;28;20247;-65
2022/03/09 10:19:54;;;;;;;16.63;14.83;;;;;;;3.89;40.92;94843.63;5043426;28;20293;-65
2022/03/09 10:22:33;;;;;;;16.53;14.50;;;;;;;3.70;40.74;94849.38;5040574;28;20222;-66
2022/03/09 10:25:17;;;;;;;17.63;15.83;;;;;;;3.54;42.60;94841.06;5045178;28;20326;-65
2022/03/09 10:27:51;;;;;;;17.40;15.50;;;;;;;3.40;42.37;94830.88;5044573;28;20215;-65
2022/03/09 10:30:17;;;;;;;17.73;15.93;;;;;;;3.50;42.21;94844.81;5042513;28;20297;-64
2022/03/09 10:32:45;;;;;;;16.80;15.00;;;;;;;3.31;42.98;94841.00;5057049;28;20309;-65
2022/03/09 10:35:12;;;;;;;16.70;14.90;;;;;;;3.34;43.36;94834.72;5059730;28;20225;-64
2022/03/09 10:37:40;;;;;;;21.63;15.83;;;;;;;3.74;42.80;94839.56;5058411;28;20341;-62
2022/03/09 10:40:16;;;;;;;17.30;15.40;;;;;;;3.74;42.43;94832.63;5046681;28;20209;-64
2022/03/09 10:42:42;;;;;;;17.80;14.70;;;;;;;3.86;41.88;94830.03;5046673;28;20204;-63
2022/03/09 10:45:09;;;;;;;17.57;15.83;;;;;;;4.16;43.51;94837.28;5067848;28;20239;-64
2022/03/09 10:47:41;;;;;;;16.60;14.90;;;;;;;4.10;41.74;94829.94;5050177;28;20288;-63
2022/03/09 10:50:30;;;;;;;14.47;13.07;;;;;;;4.16;40.28;94825.09;5050976;28;20239;-64
2022/03/09 10:52:58;;;;;;;15.67;13.60;;;;;;;4.23;41.60;94815.06;5046528;28;20219;-64
2022/03/09 10:55:31;;;;;;;15.53;13.20;;;;;;;4.30;41.39;94816.22;5060166;28;20205;-64
2022/03/09 10:58:10;;;;;;;17.70;12.67;;;;;;;4.40;42.40;94818.94;5065114;28;20297;-61
2022/03/09 11:00:54;;;;;;;12.70;11.40;;;;;;;4.25;41.23;94815.75;5066464;28;20260;-61
2022/03/09 11:03:26;;;;;;;12.57;10.30;;;;;;;4.00;39.21;94805.56;5060529;28;20232;-69
2022/03/09 11:05:58;;;;;;;12.60;11.30;;;;;;;4.20;39.44;94813.50;5045317;28;20220;-64
2022/03/09 11:08:32;;;;;;;10.83;8.77;;;;;;;4.33;37.22;94800.38;5037871;28;20255;-65
2022/03/09 11:10:58;;;;;;;13.93;9.40;;;;;;;4.30;37.13;94800.59;5044937;28;20219;-66
2022/03/09 11:13:25;;;;;;;10.87;9.23;;;;;;;4.38;37.99;94806.06;5042751;28;20223;-66
2022/03/09 11:15:51;;;;;;;10.80;9.80;;;;;;;4.22;38.08;94808.16;5047136;28;20228;-65
2022/03/09 11:18:24;;;;;;;9.67;8.63;;;;;;;4.09;39.28;94804.84;5069058;28;20236;-67